sensor_id;sensor_type;location;lat;lon;timestamp;pressure;altitude;pressure_sealevel;temperature;humidity
55687;BME280;41911;52.362;4.978;2023-03-31T00:00:24;100264.24;;;8.94;54.31
55687;BME280;41911;52.362;4.978;2023-03-31T00:00:55;100263.49;;;9.05;53.91
55687;BME280;41911;52.362;4.978;2023-03-31T00:01:26;100264.12;;;9.84;53.79
55687;BME280;41911;52.362;4.978;2023-03-31T00:01:58;100261.97;;;9.89;53.80
55687;BME280;41911;52.362;4.978;2023-03-31T00:02:29;100257.83;;;9.08;54.41
55687;BME280;41911;52.362;4.978;2023-03-31T00:02:59;100258.82;;;8.99;54.09
55687;BME280;41911;52.362;4.978;2023-03-31T00:03:30;100263.05;;;9.49;53.52
55687;BME280;41911;52.362;4.978;2023-03-31T00:04:02;100258.64;;;10.15;53.25
55687;BME280;41911;52.362;4.978;2023-03-31T00:04:33;100258.35;;;10.25;53.11
55687;BME280;41911;52.362;4.978;2023-03-31T00:05:04;100256.13;;;9.64;53.09
55687;BME280;41911;52.362;4.978;2023-03-31T00:05:36;100254.30;;;9.62;53.06
55687;BME280;41911;52.362;4.978;2023-03-31T00:06:08;100254.66;;;9.49;53.14
55687;BME280;41911;52.362;4.978;2023-03-31T00:06:41;100253.09;;;9.41;53.28
55687;BME280;41911;52.362;4.978;2023-03-31T00:07:13;100250.02;;;9.95;52.45
55687;BME280;41911;52.362;4.978;2023-03-31T00:07:44;100250.41;;;10.25;51.89
55687;BME280;41911;52.362;4.978;2023-03-31T00:08:15;100248.01;;;10.45;51.49
55687;BME280;41911;52.362;4.978;2023-03-31T00:08:47;100247.18;;;10.42;51.49
55687;BME280;41911;52.362;4.978;2023-03-31T00:09:17;100250.24;;;10.38;51.56
55687;BME280;41911;52.362;4.978;2023-03-31T00:09:49;100247.68;;;10.46;51.37
55687;BME280;41911;52.362;4.978;2023-03-31T00:10:20;100245.53;;;10.24;51.26
55687;BME280;41911;52.362;4.978;2023-03-31T00:10:51;100243.36;;;10.39;51.31
55687;BME280;41911;52.362;4.978;2023-03-31T00:11:22;100243.34;;;10.30;51.57
55687;BME280;41911;52.362;4.978;2023-03-31T00:11:54;100241.92;;;10.17;51.37
55687;BME280;41911;52.362;4.978;2023-03-31T00:12:25;100240.79;;;10.42;51.25
55687;BME280;41911;52.362;4.978;2023-03-31T00:12:56;100242.04;;;9.91;51.79
55687;BME280;41911;52.362;4.978;2023-03-31T00:13:27;100238.91;;;10.09;51.94
55687;BME280;41911;52.362;4.978;2023-03-31T00:13:58;100237.07;;;9.87;52.13
55687;BME280;41911;52.362;4.978;2023-03-31T00:14:29;100232.38;;;10.10;51.93
55687;BME280;41911;52.362;4.978;2023-03-31T00:15:00;100230.09;;;9.90;51.85
55687;BME280;41911;52.362;4.978;2023-03-31T00:15:31;100231.14;;;9.86;52.25
55687;BME280;41911;52.362;4.978;2023-03-31T00:16:04;100232.01;;;10.08;52.03
55687;BME280;41911;52.362;4.978;2023-03-31T00:16:35;100230.22;;;10.32;51.67
55687;BME280;41911;52.362;4.978;2023-03-31T00:17:07;100229.53;;;10.33;51.53
55687;BME280;41911;52.362;4.978;2023-03-31T00:17:40;100229.92;;;10.21;51.79
55687;BME280;41911;52.362;4.978;2023-03-31T00:18:11;100230.00;;;10.47;51.34
55687;BME280;41911;52.362;4.978;2023-03-31T00:18:42;100231.24;;;10.06;51.57
55687;BME280;41911;52.362;4.978;2023-03-31T00:19:13;100227.54;;;10.27;51.50
55687;BME280;41911;52.362;4.978;2023-03-31T00:19:44;100228.46;;;10.30;51.61
55687;BME280;41911;52.362;4.978;2023-03-31T00:20:15;100228.54;;;10.38;51.47
55687;BME280;41911;52.362;4.978;2023-03-31T00:20:47;100225.41;;;9.69;52.05
55687;BME280;41911;52.362;4.978;2023-03-31T00:21:20;100225.05;;;10.14;51.90
55687;BME280;41911;52.362;4.978;2023-03-31T00:21:51;100227.38;;;10.36;51.54
55687;BME280;41911;52.362;4.978;2023-03-31T00:22:22;100224.89;;;10.07;51.60
55687;BME280;41911;52.362;4.978;2023-03-31T00:22:53;100223.08;;;10.45;51.39
55687;BME280;41911;52.362;4.978;2023-03-31T00:23:24;100222.13;;;10.41;51.47
55687;BME280;41911;52.362;4.978;2023-03-31T00:23:57;100220.60;;;10.16;51.72
55687;BME280;41911;52.362;4.978;2023-03-31T00:24:35;100219.89;;;10.07;51.96
55687;BME280;41911;52.362;4.978;2023-03-31T00:25:08;100216.23;;;10.18;51.72
55687;BME280;41911;52.362;4.978;2023-03-31T00:25:40;100214.85;;;10.12;51.45
55687;BME280;41911;52.362;4.978;2023-03-31T00:26:11;100213.76;;;10.59;51.13
55687;BME280;41911;52.362;4.978;2023-03-31T00:26:42;100211.80;;;10.28;50.94
55687;BME280;41911;52.362;4.978;2023-03-31T00:27:14;100209.12;;;10.49;51.08
55687;BME280;41911;52.362;4.978;2023-03-31T00:27:45;100210.45;;;10.34;50.95
55687;BME280;41911;52.362;4.978;2023-03-31T00:28:16;100211.60;;;10.58;51.01
55687;BME280;41911;52.362;4.978;2023-03-31T00:28:47;100207.89;;;10.34;50.90
55687;BME280;41911;52.362;4.978;2023-03-31T00:29:18;100208.01;;;10.52;50.77
55687;BME280;41911;52.362;4.978;2023-03-31T00:29:55;100209.10;;;10.62;50.63
55687;BME280;41911;52.362;4.978;2023-03-31T00:30:26;100204.21;;;10.37;50.39
55687;BME280;41911;52.362;4.978;2023-03-31T00:31:03;100205.24;;;10.50;50.14
55687;BME280;41911;52.362;4.978;2023-03-31T00:31:34;100199.10;;;10.77;50.11
55687;BME280;41911;52.362;4.978;2023-03-31T00:32:05;100198.91;;;11.19;50.00
55687;BME280;41911;52.362;4.978;2023-03-31T00:32:36;100201.91;;;10.71;49.72
55687;BME280;41911;52.362;4.978;2023-03-31T00:33:07;100198.26;;;10.69;49.73
55687;BME280;41911;52.362;4.978;2023-03-31T00:33:38;100198.92;;;10.67;49.77
55687;BME280;41911;52.362;4.978;2023-03-31T00:34:09;100198.63;;;10.77;49.76
55687;BME280;41911;52.362;4.978;2023-03-31T00:34:40;100195.83;;;10.70;49.65
55687;BME280;41911;52.362;4.978;2023-03-31T00:35:11;100196.82;;;10.75;49.59
55687;BME280;41911;52.362;4.978;2023-03-31T00:35:42;100194.22;;;10.95;49.66
55687;BME280;41911;52.362;4.978;2023-03-31T00:36:13;100192.59;;;10.85;49.50
55687;BME280;41911;52.362;4.978;2023-03-31T00:36:44;100189.30;;;10.74;49.62
55687;BME280;41911;52.362;4.978;2023-03-31T00:37:15;100189.05;;;10.88;49.39
55687;BME280;41911;52.362;4.978;2023-03-31T00:37:46;100187.81;;;11.02;49.10
55687;BME280;41911;52.362;4.978;2023-03-31T00:38:17;100189.42;;;11.02;49.06
55687;BME280;41911;52.362;4.978;2023-03-31T00:38:48;100186.50;;;10.71;49.11
55687;BME280;41911;52.362;4.978;2023-03-31T00:39:19;100186.85;;;11.04;48.98
55687;BME280;41911;52.362;4.978;2023-03-31T00:39:50;100187.72;;;11.03;49.03
55687;BME280;41911;52.362;4.978;2023-03-31T00:40:21;100187.74;;;10.83;49.29
55687;BME280;41911;52.362;4.978;2023-03-31T00:40:52;100183.88;;;11.18;49.28
55687;BME280;41911;52.362;4.978;2023-03-31T00:41:23;100183.45;;;10.88;49.32
55687;BME280;41911;52.362;4.978;2023-03-31T00:41:54;100183.97;;;10.95;49.15
55687;BME280;41911;52.362;4.978;2023-03-31T00:42:26;100180.00;;;10.61;49.18
55687;BME280;41911;52.362;4.978;2023-03-31T00:42:57;100181.42;;;11.21;49.16
55687;BME280;41911;52.362;4.978;2023-03-31T00:43:30;100180.29;;;10.93;49.16
55687;BME280;41911;52.362;4.978;2023-03-31T00:44:09;100176.45;;;10.50;49.26
55687;BME280;41911;52.362;4.978;2023-03-31T00:45:21;100175.85;;;10.86;49.14
55687;BME280;41911;52.362;4.978;2023-03-31T00:45:53;100173.84;;;10.55;49.62
55687;BME280;41911;52.362;4.978;2023-03-31T00:46:28;100172.45;;;10.87;49.37
55687;BME280;41911;52.362;4.978;2023-03-31T00:47:06;100169.15;;;10.91;49.29
55687;BME280;41911;52.362;4.978;2023-03-31T00:47:43;100165.83;;;11.02;49.00
55687;BME280;41911;52.362;4.978;2023-03-31T00:48:17;100163.69;;;11.08;48.76
55687;BME280;41911;52.362;4.978;2023-03-31T00:48:51;100161.78;;;10.76;49.20
55687;BME280;41911;52.362;4.978;2023-03-31T00:49:27;100161.69;;;10.91;49.08
55687;BME280;41911;52.362;4.978;2023-03-31T00:49:59;100164.89;;;10.71;49.38
55687;BME280;41911;52.362;4.978;2023-03-31T00:50:36;100164.70;;;10.74;49.34
55687;BME280;41911;52.362;4.978;2023-03-31T00:51:10;100162.22;;;10.48;49.68
55687;BME280;41911;52.362;4.978;2023-03-31T00:51:42;100164.25;;;10.58;49.57
55687;BME280;41911;52.362;4.978;2023-03-31T00:52:16;100163.08;;;10.85;49.32
55687;BME280;41911;52.362;4.978;2023-03-31T00:52:54;100162.79;;;10.55;49.56
55687;BME280;41911;52.362;4.978;2023-03-31T00:53:30;100157.33;;;10.58;49.57
55687;BME280;41911;52.362;4.978;2023-03-31T00:54:05;100153.60;;;10.79;49.33
55687;BME280;41911;52.362;4.978;2023-03-31T00:54:37;100156.05;;;10.40;49.41
55687;BME280;41911;52.362;4.978;2023-03-31T00:55:15;100152.11;;;10.69;49.31
55687;BME280;41911;52.362;4.978;2023-03-31T00:55:51;100150.42;;;11.17;49.11
55687;BME280;41911;52.362;4.978;2023-03-31T00:56:24;100146.03;;;10.89;49.12
55687;BME280;41911;52.362;4.978;2023-03-31T00:56:56;100143.49;;;11.14;48.76
55687;BME280;41911;52.362;4.978;2023-03-31T00:57:28;100141.79;;;11.15;48.76
55687;BME280;41911;52.362;4.978;2023-03-31T00:58:01;100140.16;;;11.19;48.67
55687;BME280;41911;52.362;4.978;2023-03-31T00:58:32;100143.59;;;11.15;48.65
55687;BME280;41911;52.362;4.978;2023-03-31T00:59:07;100140.12;;;11.27;48.94
55687;BME280;41911;52.362;4.978;2023-03-31T00:59:44;100141.18;;;10.81;48.74
55687;BME280;41911;52.362;4.978;2023-03-31T01:00:16;100137.84;;;11.20;48.67
55687;BME280;41911;52.362;4.978;2023-03-31T01:00:48;100132.87;;;11.06;48.74
55687;BME280;41911;52.362;4.978;2023-03-31T01:01:21;100134.03;;;11.03;48.61
55687;BME280;41911;52.362;4.978;2023-03-31T01:01:53;100133.23;;;11.12;48.51
55687;BME280;41911;52.362;4.978;2023-03-31T01:02:27;100132.32;;;11.14;48.56
55687;BME280;41911;52.362;4.978;2023-03-31T01:03:02;100132.50;;;11.13;48.55
55687;BME280;41911;52.362;4.978;2023-03-31T01:03:35;100130.76;;;11.00;48.68
55687;BME280;41911;52.362;4.978;2023-03-31T01:04:07;100128.95;;;11.07;48.57
55687;BME280;41911;52.362;4.978;2023-03-31T01:04:45;100128.58;;;10.42;48.59
55687;BME280;41911;52.362;4.978;2023-03-31T01:05:21;100126.55;;;11.11;48.58
55687;BME280;41911;52.362;4.978;2023-03-31T01:05:55;100124.33;;;11.14;48.58
55687;BME280;41911;52.362;4.978;2023-03-31T01:06:27;100120.66;;;11.01;48.85
55687;BME280;41911;52.362;4.978;2023-03-31T01:07:02;100119.79;;;11.06;48.78
55687;BME280;41911;52.362;4.978;2023-03-31T01:07:40;100120.55;;;10.89;49.01
55687;BME280;41911;52.362;4.978;2023-03-31T01:08:13;100118.14;;;10.35;49.41
55687;BME280;41911;52.362;4.978;2023-03-31T01:08:46;100115.76;;;10.73;49.33
55687;BME280;41911;52.362;4.978;2023-03-31T01:09:18;100114.79;;;10.79;49.31
55687;BME280;41911;52.362;4.978;2023-03-31T01:09:50;100119.41;;;10.92;49.11
55687;BME280;41911;52.362;4.978;2023-03-31T01:10:23;100116.19;;;10.68;49.40
55687;BME280;41911;52.362;4.978;2023-03-31T01:10:56;100117.32;;;10.92;49.22
55687;BME280;41911;52.362;4.978;2023-03-31T01:11:30;100115.55;;;10.80;49.30
55687;BME280;41911;52.362;4.978;2023-03-31T01:12:05;100114.03;;;10.76;49.36
55687;BME280;41911;52.362;4.978;2023-03-31T01:12:39;100108.81;;;10.37;50.05
55687;BME280;41911;52.362;4.978;2023-03-31T01:13:12;100109.05;;;10.66;49.67
55687;BME280;41911;52.362;4.978;2023-03-31T01:13:45;100108.33;;;10.73;49.64
55687;BME280;41911;52.362;4.978;2023-03-31T01:14:18;100110.47;;;11.06;49.61
55687;BME280;41911;52.362;4.978;2023-03-31T01:14:49;100102.57;;;10.50;49.53
55687;BME280;41911;52.362;4.978;2023-03-31T01:15:21;100102.76;;;10.27;49.83
55687;BME280;41911;52.362;4.978;2023-03-31T01:15:52;100106.46;;;10.63;49.78
55687;BME280;41911;52.362;4.978;2023-03-31T01:16:24;100103.54;;;10.64;49.79
55687;BME280;41911;52.362;4.978;2023-03-31T01:16:55;100104.86;;;10.77;49.50
55687;BME280;41911;52.362;4.978;2023-03-31T01:17:26;100101.67;;;10.95;49.69
55687;BME280;41911;52.362;4.978;2023-03-31T01:17:57;100099.54;;;10.73;49.64
55687;BME280;41911;52.362;4.978;2023-03-31T01:18:28;100100.26;;;10.84;49.56
55687;BME280;41911;52.362;4.978;2023-03-31T01:18:59;100100.71;;;10.68;49.76
55687;BME280;41911;52.362;4.978;2023-03-31T01:19:41;100099.73;;;10.63;49.76
55687;BME280;41911;52.362;4.978;2023-03-31T01:20:25;100097.31;;;10.80;49.68
55687;BME280;41911;52.362;4.978;2023-03-31T01:21:26;100094.49;;;10.83;49.58
55687;BME280;41911;52.362;4.978;2023-03-31T01:22:31;100089.51;;;10.71;49.75
55687;BME280;41911;52.362;4.978;2023-03-31T01:23:37;100088.03;;;10.64;49.98
55687;BME280;41911;52.362;4.978;2023-03-31T01:24:40;100080.27;;;10.13;50.81
55687;BME280;41911;52.362;4.978;2023-03-31T01:25:41;100077.61;;;10.28;50.79
55687;BME280;41911;52.362;4.978;2023-03-31T01:27:06;100076.14;;;10.22;50.95
55687;BME280;41911;52.362;4.978;2023-03-31T01:27:54;100071.46;;;10.66;50.58
55687;BME280;41911;52.362;4.978;2023-03-31T01:28:34;100071.66;;;10.71;50.46
55687;BME280;41911;52.362;4.978;2023-03-31T01:29:22;100069.35;;;11.01;50.43
55687;BME280;41911;52.362;4.978;2023-03-31T01:30:17;100066.96;;;10.49;50.66
55687;BME280;41911;52.362;4.978;2023-03-31T01:31:34;100070.07;;;10.50;50.73
55687;BME280;41911;52.362;4.978;2023-03-31T01:32:25;100063.63;;;10.45;50.97
55687;BME280;41911;52.362;4.978;2023-03-31T01:33:14;100063.81;;;9.93;51.30
55687;BME280;41911;52.362;4.978;2023-03-31T01:34:10;100061.93;;;10.41;51.17
55687;BME280;41911;52.362;4.978;2023-03-31T01:35:18;100063.23;;;10.62;51.18
55687;BME280;41911;52.362;4.978;2023-03-31T01:38:43;100051.02;;;10.76;51.56
55687;BME280;41911;52.362;4.978;2023-03-31T01:40:38;100052.42;;;10.97;51.28
55687;BME280;41911;52.362;4.978;2023-03-31T01:41:20;100047.56;;;10.85;51.08
55687;BME280;41911;52.362;4.978;2023-03-31T01:41:57;100047.00;;;10.43;51.26
55687;BME280;41911;52.362;4.978;2023-03-31T01:42:35;100049.20;;;10.42;51.59
55687;BME280;41911;52.362;4.978;2023-03-31T01:43:17;100045.99;;;10.68;51.84
55687;BME280;41911;52.362;4.978;2023-03-31T01:43:58;100046.61;;;10.68;51.52
55687;BME280;41911;52.362;4.978;2023-03-31T01:44:39;100041.35;;;11.05;51.19
55687;BME280;41911;52.362;4.978;2023-03-31T01:45:22;100040.52;;;10.82;51.15
55687;BME280;41911;52.362;4.978;2023-03-31T01:46:01;100037.56;;;10.81;51.17
55687;BME280;41911;52.362;4.978;2023-03-31T01:46:36;100033.85;;;10.84;51.10
55687;BME280;41911;52.362;4.978;2023-03-31T01:47:14;100030.59;;;10.51;51.25
55687;BME280;41911;52.362;4.978;2023-03-31T01:47:51;100033.41;;;11.10;51.22
55687;BME280;41911;52.362;4.978;2023-03-31T01:48:34;100033.37;;;10.51;51.14
55687;BME280;41911;52.362;4.978;2023-03-31T01:49:16;100031.78;;;10.60;51.05
55687;BME280;41911;52.362;4.978;2023-03-31T01:49:55;100028.85;;;10.68;50.92
55687;BME280;41911;52.362;4.978;2023-03-31T01:50:35;100027.54;;;10.91;50.64
55687;BME280;41911;52.362;4.978;2023-03-31T01:51:14;100025.34;;;10.84;50.73
55687;BME280;41911;52.362;4.978;2023-03-31T01:51:58;100023.39;;;10.45;51.24
55687;BME280;41911;52.362;4.978;2023-03-31T01:52:38;100029.88;;;10.21;51.76
55687;BME280;41911;52.362;4.978;2023-03-31T01:53:15;100023.77;;;10.58;51.85
55687;BME280;41911;52.362;4.978;2023-03-31T01:53:53;100018.54;;;10.35;51.81
55687;BME280;41911;52.362;4.978;2023-03-31T01:54:32;100018.43;;;10.80;51.76
55687;BME280;41911;52.362;4.978;2023-03-31T01:55:12;100017.51;;;10.63;51.66
55687;BME280;41911;52.362;4.978;2023-03-31T01:55:50;100016.72;;;10.99;51.57
55687;BME280;41911;52.362;4.978;2023-03-31T01:56:31;100012.62;;;10.63;51.68
55687;BME280;41911;52.362;4.978;2023-03-31T01:57:10;100013.83;;;10.41;51.98
55687;BME280;41911;52.362;4.978;2023-03-31T01:57:50;100016.02;;;10.51;52.47
55687;BME280;41911;52.362;4.978;2023-03-31T01:58:28;100011.93;;;10.68;52.13
55687;BME280;41911;52.362;4.978;2023-03-31T01:59:06;100013.34;;;10.74;52.31
55687;BME280;41911;52.362;4.978;2023-03-31T01:59:45;100007.91;;;10.27;52.36
55687;BME280;41911;52.362;4.978;2023-03-31T02:00:30;100009.58;;;10.15;52.67
55687;BME280;41911;52.362;4.978;2023-03-31T02:01:08;100008.16;;;10.88;52.56
55687;BME280;41911;52.362;4.978;2023-03-31T02:01:49;100002.18;;;10.47;52.20
55687;BME280;41911;52.362;4.978;2023-03-31T02:02:28;100002.58;;;10.83;52.36
55687;BME280;41911;52.362;4.978;2023-03-31T02:03:07;100001.01;;;10.71;52.26
55687;BME280;41911;52.362;4.978;2023-03-31T02:03:48;99996.72;;;10.45;52.70
55687;BME280;41911;52.362;4.978;2023-03-31T02:04:22;99995.42;;;10.54;52.62
55687;BME280;41911;52.362;4.978;2023-03-31T02:04:58;99996.60;;;9.71;53.51
55687;BME280;41911;52.362;4.978;2023-03-31T02:05:35;99994.42;;;9.94;53.63
55687;BME280;41911;52.362;4.978;2023-03-31T02:06:11;99991.41;;;10.15;53.91
55687;BME280;41911;52.362;4.978;2023-03-31T02:06:46;99987.84;;;9.77;54.02
55687;BME280;41911;52.362;4.978;2023-03-31T02:07:25;99985.96;;;10.15;53.90
55687;BME280;41911;52.362;4.978;2023-03-31T02:08:03;99986.36;;;10.00;53.82
55687;BME280;41911;52.362;4.978;2023-03-31T02:08:40;99985.50;;;10.24;53.72
55687;BME280;41911;52.362;4.978;2023-03-31T02:09:16;99985.83;;;10.28;53.73
55687;BME280;41911;52.362;4.978;2023-03-31T02:09:51;99984.62;;;10.17;53.93
55687;BME280;41911;52.362;4.978;2023-03-31T02:10:25;99983.23;;;10.04;53.79
55687;BME280;41911;52.362;4.978;2023-03-31T02:11:01;99978.61;;;9.90;53.83
55687;BME280;41911;52.362;4.978;2023-03-31T02:11:33;99977.70;;;10.34;53.86
55687;BME280;41911;52.362;4.978;2023-03-31T02:12:08;99975.06;;;10.13;53.97
55687;BME280;41911;52.362;4.978;2023-03-31T02:12:42;99973.30;;;10.32;53.80
55687;BME280;41911;52.362;4.978;2023-03-31T02:13:15;99968.64;;;10.09;54.23
55687;BME280;41911;52.362;4.978;2023-03-31T02:13:51;99970.13;;;10.08;54.13
55687;BME280;41911;52.362;4.978;2023-03-31T02:14:25;99970.66;;;10.16;54.22
55687;BME280;41911;52.362;4.978;2023-03-31T02:15:01;99967.46;;;10.32;54.12
55687;BME280;41911;52.362;4.978;2023-03-31T02:15:36;99967.04;;;10.35;54.03
55687;BME280;41911;52.362;4.978;2023-03-31T02:16:12;99964.51;;;10.29;54.19
55687;BME280;41911;52.362;4.978;2023-03-31T02:16:45;99962.51;;;10.09;54.38
55687;BME280;41911;52.362;4.978;2023-03-31T02:17:20;99959.71;;;10.13;54.53
55687;BME280;41911;52.362;4.978;2023-03-31T02:17:56;99961.32;;;10.39;54.28
55687;BME280;41911;52.362;4.978;2023-03-31T02:18:30;99961.15;;;10.18;54.07
55687;BME280;41911;52.362;4.978;2023-03-31T02:19:04;99959.58;;;10.13;54.57
55687;BME280;41911;52.362;4.978;2023-03-31T02:19:38;99956.44;;;10.19;54.56
55687;BME280;41911;52.362;4.978;2023-03-31T02:20:11;99953.98;;;9.98;54.83
55687;BME280;41911;52.362;4.978;2023-03-31T02:20:49;99956.61;;;10.28;54.46
55687;BME280;41911;52.362;4.978;2023-03-31T02:21:51;99958.14;;;10.44;54.08
55687;BME280;41911;52.362;4.978;2023-03-31T02:22:24;99953.46;;;10.48;54.06
55687;BME280;41911;52.362;4.978;2023-03-31T02:22:57;99948.27;;;10.69;53.68
55687;BME280;41911;52.362;4.978;2023-03-31T02:23:30;99944.74;;;10.41;53.73
55687;BME280;41911;52.362;4.978;2023-03-31T02:24:06;99940.13;;;10.37;53.53
55687;BME280;41911;52.362;4.978;2023-03-31T02:24:39;99946.13;;;10.66;53.31
55687;BME280;41911;52.362;4.978;2023-03-31T02:25:15;99946.94;;;10.18;54.11
55687;BME280;41911;52.362;4.978;2023-03-31T02:25:48;99942.15;;;10.53;54.21
55687;BME280;41911;52.362;4.978;2023-03-31T02:26:23;99941.21;;;10.72;53.91
55687;BME280;41911;52.362;4.978;2023-03-31T02:27:02;99943.33;;;10.22;54.01
55687;BME280;41911;52.362;4.978;2023-03-31T02:27:38;99939.87;;;10.34;54.56
55687;BME280;41911;52.362;4.978;2023-03-31T02:28:12;99938.82;;;10.22;54.88
55687;BME280;41911;52.362;4.978;2023-03-31T02:28:47;99936.39;;;10.15;54.89
55687;BME280;41911;52.362;4.978;2023-03-31T02:29:18;99936.68;;;10.26;54.71
55687;BME280;41911;52.362;4.978;2023-03-31T02:29:50;99937.66;;;10.36;54.70
55687;BME280;41911;52.362;4.978;2023-03-31T02:30:22;99932.99;;;10.49;54.56
55687;BME280;41911;52.362;4.978;2023-03-31T02:31:04;99933.47;;;9.93;54.88
55687;BME280;41911;52.362;4.978;2023-03-31T02:31:42;99925.97;;;10.40;54.71
55687;BME280;41911;52.362;4.978;2023-03-31T02:32:28;99926.07;;;10.19;55.15
55687;BME280;41911;52.362;4.978;2023-03-31T02:33:00;99924.99;;;10.24;55.27
55687;BME280;41911;52.362;4.978;2023-03-31T02:33:31;99925.95;;;10.01;55.00
55687;BME280;41911;52.362;4.978;2023-03-31T02:34:03;99921.24;;;10.34;54.62
55687;BME280;41911;52.362;4.978;2023-03-31T02:34:34;99918.02;;;10.33;54.58
55687;BME280;41911;52.362;4.978;2023-03-31T02:35:06;99922.61;;;10.47;54.81
55687;BME280;41911;52.362;4.978;2023-03-31T02:35:39;99922.51;;;10.30;55.03
55687;BME280;41911;52.362;4.978;2023-03-31T02:36:10;99919.46;;;9.95;55.10
55687;BME280;41911;52.362;4.978;2023-03-31T02:36:41;99918.90;;;10.35;55.11
55687;BME280;41911;52.362;4.978;2023-03-31T02:37:14;99922.47;;;10.38;55.12
55687;BME280;41911;52.362;4.978;2023-03-31T02:37:45;99918.82;;;9.88;55.38
55687;BME280;41911;52.362;4.978;2023-03-31T02:38:18;99920.71;;;10.31;55.27
55687;BME280;41911;52.362;4.978;2023-03-31T02:38:57;99918.51;;;9.96;55.39
55687;BME280;41911;52.362;4.978;2023-03-31T02:39:33;99917.15;;;10.14;55.64
55687;BME280;41911;52.362;4.978;2023-03-31T02:40:07;99913.29;;;9.96;56.03
55687;BME280;41911;52.362;4.978;2023-03-31T02:40:39;99915.82;;;9.60;56.15
55687;BME280;41911;52.362;4.978;2023-03-31T02:41:11;99912.37;;;9.95;56.15
55687;BME280;41911;52.362;4.978;2023-03-31T02:41:42;99912.04;;;10.33;55.78
55687;BME280;41911;52.362;4.978;2023-03-31T02:42:14;99904.86;;;10.46;55.60
55687;BME280;41911;52.362;4.978;2023-03-31T02:42:45;99902.86;;;10.53;55.48
55687;BME280;41911;52.362;4.978;2023-03-31T02:43:17;99912.13;;;10.01;56.27
55687;BME280;41911;52.362;4.978;2023-03-31T02:43:48;99911.74;;;10.36;55.97
55687;BME280;41911;52.362;4.978;2023-03-31T02:44:20;99906.66;;;10.54;55.59
55687;BME280;41911;52.362;4.978;2023-03-31T02:44:51;99911.29;;;10.19;56.08
55687;BME280;41911;52.362;4.978;2023-03-31T02:45:40;99901.80;;;10.27;56.07
55687;BME280;41911;52.362;4.978;2023-03-31T02:46:11;99903.71;;;10.41;56.02
55687;BME280;41911;52.362;4.978;2023-03-31T02:46:42;99901.60;;;10.49;55.63
55687;BME280;41911;52.362;4.978;2023-03-31T02:47:16;99902.29;;;10.13;56.14
55687;BME280;41911;52.362;4.978;2023-03-31T02:47:48;99907.03;;;10.15;56.39
55687;BME280;41911;52.362;4.978;2023-03-31T02:48:22;99901.68;;;9.98;56.61
55687;BME280;41911;52.362;4.978;2023-03-31T02:48:56;99901.33;;;9.83;56.67
55687;BME280;41911;52.362;4.978;2023-03-31T02:49:31;99899.61;;;10.26;56.39
55687;BME280;41911;52.362;4.978;2023-03-31T02:50:04;99900.35;;;10.03;56.71
55687;BME280;41911;52.362;4.978;2023-03-31T02:50:50;99900.37;;;9.98;57.06
55687;BME280;41911;52.362;4.978;2023-03-31T02:51:38;99895.39;;;9.99;56.73
55687;BME280;41911;52.362;4.978;2023-03-31T02:52:27;99891.55;;;9.98;57.19
55687;BME280;41911;52.362;4.978;2023-03-31T02:53:09;99890.47;;;9.66;57.32
55687;BME280;41911;52.362;4.978;2023-03-31T02:53:58;99888.10;;;10.08;57.01
55687;BME280;41911;52.362;4.978;2023-03-31T02:54:51;99881.90;;;10.39;56.60
55687;BME280;41911;52.362;4.978;2023-03-31T02:55:54;99881.48;;;10.43;56.67
55687;BME280;41911;52.362;4.978;2023-03-31T02:56:45;99876.26;;;10.25;56.69
55687;BME280;41911;52.362;4.978;2023-03-31T02:57:36;99873.47;;;10.26;56.84
55687;BME280;41911;52.362;4.978;2023-03-31T02:58:53;99869.43;;;10.16;56.74
55687;BME280;41911;52.362;4.978;2023-03-31T02:59:37;99864.91;;;9.91;56.86
55687;BME280;41911;52.362;4.978;2023-03-31T03:00:16;99860.50;;;9.98;56.89
55687;BME280;41911;52.362;4.978;2023-03-31T03:01:06;99856.09;;;10.08;56.57
55687;BME280;41911;52.362;4.978;2023-03-31T03:01:52;99855.43;;;10.50;56.58
55687;BME280;41911;52.362;4.978;2023-03-31T03:02:39;99850.71;;;10.42;56.59
55687;BME280;41911;52.362;4.978;2023-03-31T03:03:25;99853.75;;;10.74;56.17
55687;BME280;41911;52.362;4.978;2023-03-31T03:04:07;99850.51;;;10.56;56.38
55687;BME280;41911;52.362;4.978;2023-03-31T03:05:00;99848.41;;;10.66;56.02
55687;BME280;41911;52.362;4.978;2023-03-31T03:05:42;99843.33;;;10.39;55.79
55687;BME280;41911;52.362;4.978;2023-03-31T03:06:23;99844.91;;;10.26;55.92
55687;BME280;41911;52.362;4.978;2023-03-31T03:07:05;99839.94;;;10.44;56.24
55687;BME280;41911;52.362;4.978;2023-03-31T03:07:45;99837.31;;;10.86;55.81
55687;BME280;41911;52.362;4.978;2023-03-31T03:08:25;99835.72;;;10.98;55.70
55687;BME280;41911;52.362;4.978;2023-03-31T03:09:06;99831.73;;;10.37;55.66
55687;BME280;41911;52.362;4.978;2023-03-31T03:09:47;99828.55;;;10.71;55.78
55687;BME280;41911;52.362;4.978;2023-03-31T03:10:29;99832.14;;;10.82;55.98
55687;BME280;41911;52.362;4.978;2023-03-31T03:11:11;99825.79;;;10.43;55.59
55687;BME280;41911;52.362;4.978;2023-03-31T03:11:47;99826.52;;;10.84;55.31
55687;BME280;41911;52.362;4.978;2023-03-31T03:12:26;99821.18;;;11.09;55.48
55687;BME280;41911;52.362;4.978;2023-03-31T03:13:05;99819.41;;;10.63;55.20
55687;BME280;41911;52.362;4.978;2023-03-31T03:13:44;99815.58;;;11.02;55.12
55687;BME280;41911;52.362;4.978;2023-03-31T03:14:24;99817.12;;;10.79;54.99
55687;BME280;41911;52.362;4.978;2023-03-31T03:15:04;99813.65;;;10.82;54.95
55687;BME280;41911;52.362;4.978;2023-03-31T03:15:41;99811.09;;;10.98;55.28
55687;BME280;41911;52.362;4.978;2023-03-31T03:16:18;99810.35;;;10.69;54.94
55687;BME280;41911;52.362;4.978;2023-03-31T03:16:56;99809.76;;;10.84;55.06
55687;BME280;41911;52.362;4.978;2023-03-31T03:17:33;99808.49;;;10.44;55.26